Time;durP1;ratioP1;P1;durP2;ratioP2;P2;SDS_P1;SDS_P2;PMS_P1;PMS_P2;Temp;Humidity;BMP_temperature;BMP_pressure;BME280_temperature;BME280_humidity;BME280_pressure;Samples;Min_cycle;Max_cycle;Signal;HPM_P1;HPM_P2
2022/06/09 00:00:48;;;;;;;;;;;;;;;17.69;100.00;96754.59;5094290;28;20257;-75
2022/06/09 00:03:18;;;;;;;;;;;;;;;17.75;100.00;96756.69;5081703;28;19912;-74
2022/06/09 00:05:44;;;;;;;;;;;;;;;17.64;100.00;96761.50;5110019;28;20401;-74
2022/06/09 00:08:09;;;;;;;;;;;;;;;17.65;100.00;96753.25;5080254;28;19953;-74
2022/06/09 00:10:36;;;;;;;;;;;;;;;17.63;100.00;96755.25;5097631;28;20020;-74
2022/06/09 00:13:02;;;;;;;;;;;;;;;17.62;100.00;96758.97;5075342;28;19912;-75
2022/06/09 00:15:27;;;;;;;;;;;;;;;17.58;100.00;96754.03;5092629;28;19919;-75
2022/06/09 00:17:56;;;;;;;;;;;;;;;17.44;100.00;96750.03;5100861;28;19922;-75
2022/06/09 00:20:21;;;;;;;;;;;;;;;17.42;100.00;96757.41;5103952;28;19959;-75
2022/06/09 00:22:46;;;;;;;;;;;;;;;17.45;100.00;96746.28;5107788;28;20070;-75
2022/06/09 00:25:12;;;;;;;;;;;;;;;17.49;100.00;96749.53;5090396;28;19964;-76
2022/06/09 00:27:37;;;;;;;;;;;;;;;17.53;100.00;96753.63;5086089;28;19916;-75
2022/06/09 00:30:05;;;;;;;;;;;;;;;17.50;100.00;96749.38;5077784;28;19912;-76
2022/06/09 00:32:30;;;;;;;;;;;;;;;17.45;100.00;96746.28;5074716;28;19915;-75
2022/06/09 00:34:55;;;;;;;;;;;;;;;17.39;100.00;96738.81;5080266;28;19953;-75
2022/06/09 00:37:21;;;;;;;;;;;;;;;17.42;100.00;96740.34;5099927;28;19923;-74
2022/06/09 00:39:46;;;;;;;;;;;;;;;17.38;100.00;96733.56;5091673;28;19958;-75
2022/06/09 00:42:11;;;;;;;;;;;;;;;17.39;100.00;96736.09;5100311;28;19994;-75
2022/06/09 00:44:37;;;;;;;;;;;;;;;17.42;100.00;96735.78;5087093;28;19919;-74
2022/06/09 00:47:02;;;;;;;;;;;;;;;17.44;100.00;96743.75;5089886;28;19927;-74
2022/06/09 00:49:36;;;;;;;;;;;;;;;17.37;100.00;96746.22;5104568;28;19923;-75
2022/06/09 00:52:02;;;;;;;;;;;;;;;17.31;100.00;96738.75;5080212;28;20028;-74
2022/06/09 00:54:27;;;;;;;;;;;;;;;17.30;100.00;96737.91;5084341;28;19912;-75
2022/06/09 00:57:03;;;;;;;;;;;;;;;17.26;100.00;96735.66;5098207;28;19904;-75
2022/06/09 00:59:28;;;;;;;;;;;;;;;17.19;100.00;96735.44;5101266;28;19919;-75
2022/06/09 01:01:54;;;;;;;;;;;;;;;17.13;100.00;96733.38;5085152;28;19911;-74
2022/06/09 01:04:20;;;;;;;;;;;;;;;17.13;100.00;96736.06;5081102;28;20383;-75
2022/06/09 01:06:51;;;;;;;;;;;;;;;17.12;100.00;96733.50;5078389;28;19927;-75
2022/06/09 01:09:21;;;;;;;;;;;;;;;17.09;100.00;96740.06;5103288;28;19912;-74
2022/06/09 01:11:47;;;;;;;;;;;;;;;17.13;100.00;96737.91;5102477;28;20341;-75
2022/06/09 01:14:13;;;;;;;;;;;;;;;17.15;100.00;96738.59;5081712;28;19911;-75
2022/06/09 01:16:54;;;;;;;;;;;;;;;17.16;100.00;96730.34;5106073;28;19915;-74
2022/06/09 01:19:38;;;;;;;;;;;;;;;17.19;100.00;96737.28;5126143;27;20032;-74
2022/06/09 01:22:09;;;;;;;;;;;;;;;17.11;100.00;96734.50;5114806;27;20321;-76
2022/06/09 01:24:43;;;;;;;;;;;;;;;17.16;100.00;96734.91;5124179;27;19916;-73
2022/06/09 01:27:09;;;;;;;;;;;;;;;17.18;100.00;96743.69;5098660;28;19922;-75
2022/06/09 01:29:40;;;;;;;;;;;;;;;17.19;100.00;96745.41;5106996;28;20363;-75
2022/06/09 01:32:11;;;;;;;;;;;;;;;17.07;100.00;96735.84;5102911;28;19918;-76
2022/06/09 01:34:47;;;;;;;;;;;;;;;17.09;100.00;96739.22;5091173;28;20306;-76
2022/06/09 01:37:16;;;;;;;;;;;;;;;17.11;100.00;96742.59;5098299;28;19995;-76
2022/06/09 01:39:44;;;;;;;;;;;;;;;17.01;100.00;96736.47;5085061;28;19991;-77
2022/06/09 01:42:19;;;;;;;;;;;;;;;16.96;100.00;96731.50;5101980;28;19916;-76
2022/06/09 01:44:44;;;;;;;;;;;;;;;16.85;100.00;96736.28;5105162;28;19965;-76
2022/06/09 01:47:10;;;;;;;;;;;;;;;16.84;100.00;96743.53;5101255;28;20372;-76
2022/06/09 01:49:35;;;;;;;;;;;;;;;16.83;100.00;96744.53;5088144;28;19954;-76
2022/06/09 01:52:00;;;;;;;;;;;;;;;16.79;100.00;96740.47;5085356;28;19912;-76
2022/06/09 01:54:30;;;;;;;;;;;;;;;16.69;100.00;96737.81;5083798;28;19915;-75
2022/06/09 01:56:57;;;;;;;;;;;;;;;16.73;100.00;96736.50;5079848;28;19911;-76
2022/06/09 01:59:22;;;;;;;;;;;;;;;16.67;100.00;96736.28;5078645;28;19972;-76
2022/06/09 02:02:04;;;;;;;;;;;;;;;16.65;100.00;96731.00;5093037;28;19957;-76
2022/06/09 02:04:33;;;;;;;;;;;;;;;16.64;100.00;96729.31;5097701;28;19998;-75
2022/06/09 02:07:01;;;;;;;;;;;;;;;16.63;100.00;96732.19;5083578;28;19915;-76
2022/06/09 02:09:28;;;;;;;;;;;;;;;16.58;100.00;96735.31;5079706;28;19912;-76
2022/06/09 02:11:54;;;;;;;;;;;;;;;16.49;100.00;96733.50;5076861;28;19923;-76
2022/06/09 02:14:20;;;;;;;;;;;;;;;16.51;100.00;96742.31;5080785;28;19919;-76
2022/06/09 02:16:46;;;;;;;;;;;;;;;16.60;100.00;96748.69;5081249;28;19911;-76
2022/06/09 02:19:11;;;;;;;;;;;;;;;16.60;100.00;96745.97;5081099;28;19915;-76
2022/06/09 02:21:37;;;;;;;;;;;;;;;16.56;100.00;96737.31;5102153;28;19916;-76
2022/06/09 02:24:02;;;;;;;;;;;;;;;16.53;100.00;96734.03;5105909;28;19930;-76
2022/06/09 02:26:28;;;;;;;;;;;;;;;16.55;100.00;96741.03;5085733;28;20024;-76
2022/06/09 02:28:53;;;;;;;;;;;;;;;16.49;100.00;96736.19;5096905;28;19946;-76
2022/06/09 02:31:20;;;;;;;;;;;;;;;16.47;100.00;96729.25;5078557;28;19908;-76
2022/06/09 02:33:45;;;;;;;;;;;;;;;16.49;100.00;96736.19;5088221;28;19955;-76
2022/06/09 02:36:11;;;;;;;;;;;;;;;16.46;100.00;96728.41;5084183;28;19948;-76
2022/06/09 02:38:36;;;;;;;;;;;;;;;16.44;100.00;96737.66;5102688;28;19942;-76
2022/06/09 02:41:02;;;;;;;;;;;;;;;16.43;100.00;96739.50;5102360;28;19969;-76
2022/06/09 02:43:28;;;;;;;;;;;;;;;16.44;100.00;96733.09;5085520;28;19998;-74
2022/06/09 02:45:53;;;;;;;;;;;;;;;16.52;100.00;96738.59;5083587;28;19958;-74
2022/06/09 02:48:19;;;;;;;;;;;;;;;16.54;100.00;96742.03;5089368;28;20051;-74
2022/06/09 02:50:46;;;;;;;;;;;;;;;16.62;100.00;96747.53;5097343;28;19919;-75
2022/06/09 02:53:12;;;;;;;;;;;;;;;16.68;100.00;96743.34;5084471;28;19911;-75
2022/06/09 02:55:37;;;;;;;;;;;;;;;16.72;100.00;96748.31;5104344;28;20440;-75
2022/06/09 02:58:04;;;;;;;;;;;;;;;16.71;100.00;96748.44;5102823;28;20496;-75
2022/06/09 03:00:29;;;;;;;;;;;;;;;16.70;100.00;96750.31;5087468;28;19934;-75
2022/06/09 03:02:59;;;;;;;;;;;;;;;16.70;100.00;96754.88;5086697;28;19912;-76
2022/06/09 03:05:25;;;;;;;;;;;;;;;16.72;100.00;96753.72;5085441;28;20060;-75
2022/06/09 03:07:50;;;;;;;;;;;;;;;16.73;100.00;96752.69;5096031;28;20348;-75
2022/06/09 03:10:16;;;;;;;;;;;;;;;16.80;100.00;96756.50;5108098;28;20008;-75
2022/06/09 03:12:41;;;;;;;;;;;;;;;16.83;100.00;96755.34;5092561;28;20371;-75
2022/06/09 03:15:08;;;;;;;;;;;;;;;16.79;100.00;96757.53;5084310;28;19920;-74
2022/06/09 03:17:36;;;;;;;;;;;;;;;16.73;100.00;96762.69;5080269;28;20286;-75
2022/06/09 03:20:13;;;;;;;;;;;;;;;16.74;100.00;96765.22;5073105;28;20363;-75
2022/06/09 03:22:38;;;;;;;;;;;;;;;16.72;100.00;96766.38;5085193;28;20003;-76
2022/06/09 03:25:04;;;;;;;;;;;;;;;16.68;100.00;96773.06;5096548;28;19947;-75
2022/06/09 03:27:29;;;;;;;;;;;;;;;16.67;100.00;96768.69;5110341;28;19916;-75
2022/06/09 03:29:54;;;;;;;;;;;;;;;16.63;100.00;96762.72;5100625;28;19912;-74
2022/06/09 03:32:21;;;;;;;;;;;;;;;16.51;100.00;96769.31;5083463;28;19912;-76
2022/06/09 03:34:47;;;;;;;;;;;;;;;16.49;100.00;96755.09;5092643;28;19963;-75
2022/06/09 03:37:12;;;;;;;;;;;;;;;16.47;100.00;96765.19;5087554;28;20002;-75
2022/06/09 03:39:38;;;;;;;;;;;;;;;16.52;100.00;96767.47;5109401;28;19912;-76
2022/06/09 03:42:04;;;;;;;;;;;;;;;16.47;100.00;96764.34;5077751;28;20388;-78
2022/06/09 03:44:30;;;;;;;;;;;;;;;16.57;100.00;96765.19;5089776;28;19934;-78
2022/06/09 03:46:55;;;;;;;;;;;;;;;16.58;100.00;96767.72;5086134;28;20383;-76
2022/06/09 03:49:21;;;;;;;;;;;;;;;16.64;100.00;96767.13;5089832;28;19944;-76
2022/06/09 03:51:46;;;;;;;;;;;;;;;16.66;100.00;96770.53;5091822;28;19999;-78
2022/06/09 03:54:13;;;;;;;;;;;;;;;16.72;100.00;96769.06;5089307;28;19923;-77
2022/06/09 03:56:39;;;;;;;;;;;;;;;16.62;100.00;96774.53;5094459;28;20353;-77
2022/06/09 03:59:04;;;;;;;;;;;;;;;16.61;100.00;96772.00;5084061;28;19940;-77
2022/06/09 04:01:30;;;;;;;;;;;;;;;16.62;100.00;96774.53;5075787;28;19912;-78
2022/06/09 04:03:55;;;;;;;;;;;;;;;16.63;100.00;96773.53;5085000;28;19919;-78
2022/06/09 04:06:22;;;;;;;;;;;;;;;16.67;100.00;96777.59;5093068;28;19919;-78
2022/06/09 04:08:51;;;;;;;;;;;;;;;16.66;100.00;96775.94;5085884;28;19943;-79
2022/06/09 04:11:16;;;;;;;;;;;;;;;16.64;100.00;96772.50;5086600;28;19911;-81
2022/06/09 04:13:42;;;;;;;;;;;;;;;16.62;100.00;96774.53;5087896;28;19934;-81
2022/06/09 04:16:19;;;;;;;;;;;;;;;16.63;100.00;96770.84;5085871;28;19912;-81
2022/06/09 04:18:45;;;;;;;;;;;;;;;16.64;100.00;96777.09;5101321;28;19912;-79
2022/06/09 04:21:10;;;;;;;;;;;;;;;16.73;100.00;96774.31;5075992;28;20049;-79
2022/06/09 04:23:35;;;;;;;;;;;;;;;16.84;100.00;96777.81;5083288;28;19911;-79
2022/06/09 04:26:01;;;;;;;;;;;;;;;16.91;100.00;96770.78;5103339;28;19913;-78
2022/06/09 04:28:26;;;;;;;;;;;;;;;17.05;100.00;96775.66;5077001;28;19916;-79
2022/06/09 04:30:51;;;;;;;;;;;;;;;17.19;100.00;96777.84;5085505;28;19966;-80
2022/06/09 04:33:17;;;;;;;;;;;;;;;17.24;100.00;96759.28;5084895;28;19920;-78
2022/06/09 04:35:44;;;;;;;;;;;;;;;17.31;100.00;96772.03;5083198;28;19955;-78
2022/06/09 04:38:11;;;;;;;;;;;;;;;17.45;100.00;96767.91;5090304;28;19918;-80
2022/06/09 04:40:38;;;;;;;;;;;;;;;17.52;100.00;96763.59;5092491;28;19919;-77
2022/06/09 04:43:04;;;;;;;;;;;;;;;17.64;100.00;96769.63;5077598;28;20282;-79
2022/06/09 04:45:29;;;;;;;;;;;;;;;17.78;100.00;96763.66;5075463;28;20061;-78
2022/06/09 04:47:54;;;;;;;;;;;;;;;18.15;100.00;96771.50;5076356;28;19994;-75
2022/06/09 04:50:20;;;;;;;;;;;;;;;19.25;100.00;96772.25;5095193;28;20371;-75
2022/06/09 04:52:46;;;;;;;;;;;;;;;20.51;100.00;96759.75;5081522;28;19915;-78
2022/06/09 04:55:11;;;;;;;;;;;;;;;21.28;100.00;96765.31;5078486;28;20038;-75
2022/06/09 04:57:37;;;;;;;;;;;;;;;22.16;100.00;96766.47;5082708;28;20400;-76
2022/06/09 05:00:03;;;;;;;;;;;;;;;23.65;89.83;96778.72;5090711;28;19912;-78
2022/06/09 05:02:29;;;;;;;;;;;;;;;24.68;78.44;96776.19;5086566;28;19911;-76
2022/06/09 05:04:54;;;;;;;;;;;;;;;25.66;73.89;96778.50;5096308;28;19961;-77
2022/06/09 05:07:19;;;;;;;;;;;;;;;26.58;68.49;96782.13;5074016;28;20018;-77
2022/06/09 05:09:45;;;;;;;;;;;;;;;27.31;63.44;96775.41;5089598;28;19920;-76
2022/06/09 05:12:10;;;;;;;;;;;;;;;28.41;58.05;96772.16;5075588;28;19930;-77
2022/06/09 05:14:36;;;;;;;;;;;;;;;29.16;54.52;96766.53;5079462;28;19911;-77
2022/06/09 05:17:01;;;;;;;;;;;;;;;30.21;51.34;96760.38;5102165;28;19959;-78
2022/06/09 05:19:27;;;;;;;;;;;;;;;29.82;50.79;96764.59;5074098;28;20400;-78
2022/06/09 05:21:52;;;;;;;;;;;;;;;27.68;55.72;96771.00;5082586;28;20393;-77
2022/06/09 05:24:18;;;;;;;;;;;;;;;28.10;54.72;96774.97;5110835;28;19916;-76
2022/06/09 05:26:43;;;;;;;;;;;;;;;28.68;53.46;96760.91;5102321;28;20318;-77
2022/06/09 05:29:09;;;;;;;;;;;;;;;30.14;50.03;96758.81;5084625;28;19916;-78
2022/06/09 05:31:34;;;;;;;;;;;;;;;31.04;47.86;96749.97;5073956;28;19916;-77
2022/06/09 05:33:59;;;;;;;;;;;;;;;31.34;46.24;96746.19;5081622;28;19922;-75
2022/06/09 05:36:25;;;;;;;;;;;;;;;30.63;47.56;96753.72;5085687;28;19911;-76
2022/06/09 05:47:02;;;;;;;;;;;;;;;33.17;41.79;96736.13;5111456;28;19922;-76
2022/06/09 05:49:30;;;;;;;;;;;;;;;31.03;45.40;96756.59;5085347;28;19912;-76
2022/06/09 05:51:56;;;;;;;;;;;;;;;31.19;45.70;96754.16;5078919;28;19912;-76
2022/06/09 05:54:21;;;;;;;;;;;;;;;31.71;44.80;96752.22;5082006;28;19935;-76
2022/06/09 05:56:46;;;;;;;;;;;;;;;32.46;43.94;96758.25;5081721;28;19930;-76
2022/06/09 05:59:12;;;;;;;;;;;;;;;33.43;42.54;96744.75;5081149;28;19958;-76
2022/06/09 06:01:37;;;;;;;;;;;;;;;34.26;40.36;96741.53;5077713;28;19912;-76
2022/06/09 06:04:04;;;;;;;;;;;;;;;33.78;40.13;96734.94;5093609;28;20420;-76
2022/06/09 06:06:35;;;;;;;;;;;;;;;31.26;44.35;96749.31;5093517;28;19915;-75
2022/06/09 06:09:05;;;;;;;;;;;;;;;31.15;44.34;96740.00;5110695;28;19927;-75
2022/06/09 06:11:30;;;;;;;;;;;;;;;33.16;42.14;96739.16;5084946;28;20289;-75
2022/06/09 06:13:56;;;;;;;;;;;;;;;34.20;40.12;96734.28;5079037;28;19920;-75
2022/06/09 06:16:22;;;;;;;;;;;;;;;34.35;39.42;96728.84;5081594;28;20281;-76
2022/06/09 06:18:48;;;;;;;;;;;;;;;33.94;40.40;96729.53;5095402;28;19919;-75
2022/06/09 06:21:13;;;;;;;;;;;;;;;32.97;41.37;96723.91;5076432;28;19964;-76
2022/06/09 06:23:40;;;;;;;;;;;;;;;32.80;40.98;96723.06;5098618;28;20029;-75
2022/06/09 06:26:05;;;;;;;;;;;;;;;33.19;40.95;96719.25;5081013;28;19993;-76
2022/06/09 06:28:31;;;;;;;;;;;;;;;32.05;42.37;96720.78;5085011;28;20007;-75
2022/06/09 06:30:56;;;;;;;;;;;;;;;33.12;41.71;96722.19;5085062;28;19925;-75
2022/06/09 06:33:22;;;;;;;;;;;;;;;32.63;41.29;96715.66;5084907;28;20291;-77
2022/06/09 06:35:48;;;;;;;;;;;;;;;32.22;41.72;96711.38;5080424;28;20076;-76
2022/06/09 06:38:15;;;;;;;;;;;;;;;33.67;40.03;96713.72;5073513;28;20367;-76
2022/06/09 06:40:40;;;;;;;;;;;;;;;33.53;40.55;96720.75;5101794;28;19919;-76
2022/06/09 06:43:05;;;;;;;;;;;;;;;34.22;39.81;96726.50;5085219;28;19912;-75
2022/06/09 06:45:31;;;;;;;;;;;;;;;34.17;38.61;96712.59;5090877;28;20379;-77
2022/06/09 06:47:56;;;;;;;;;;;;;;;33.49;38.89;96707.66;5078610;28;19916;-74
2022/06/09 06:50:22;;;;;;;;;;;;;;;34.01;37.85;96697.69;5076617;28;20379;-76
2022/06/09 06:52:47;;;;;;;;;;;;;;;33.47;38.32;96696.00;5098348;28;20025;-76
2022/06/09 06:55:14;;;;;;;;;;;;;;;34.15;39.11;96714.75;5097637;28;19911;-76
2022/06/09 06:57:39;;;;;;;;;;;;;;;35.58;36.16;96702.38;5084612;28;20391;-76
2022/06/09 07:00:05;;;;;;;;;;;;;;;35.62;36.50;96706.28;5110246;28;19962;-76
2022/06/09 07:02:31;;;;;;;;;;;;;;;35.01;37.96;96695.97;5101533;28;19951;-76
2022/06/09 07:04:56;;;;;;;;;;;;;;;33.73;39.88;96704.34;5105477;28;19951;-76
2022/06/09 07:07:22;;;;;;;;;;;;;;;33.32;39.18;96693.88;5081350;28;19916;-76
2022/06/09 07:09:47;;;;;;;;;;;;;;;33.57;40.06;96696.94;5103692;28;20302;-76
2022/06/09 07:12:12;;;;;;;;;;;;;;;33.73;39.23;96695.19;5089971;28;20276;-76
2022/06/09 07:14:38;;;;;;;;;;;;;;;34.54;38.74;96701.47;5076284;28;19912;-76
2022/06/09 07:17:04;;;;;;;;;;;;;;;35.75;36.49;96689.03;5076499;28;19908;-76
2022/06/09 07:19:29;;;;;;;;;;;;;;;36.67;36.05;96693.56;5093360;28;19911;-77
2022/06/09 07:21:55;;;;;;;;;;;;;;;36.50;35.20;96686.59;5093549;28;19912;-77
2022/06/09 07:24:20;;;;;;;;;;;;;;;36.89;35.39;96679.31;5093375;28;19961;-77
2022/06/09 07:26:46;;;;;;;;;;;;;;;37.31;33.51;96676.13;5095488;28;19915;-77
2022/06/09 07:29:13;;;;;;;;;;;;;;;36.43;34.58;96675.72;5088163;28;19916;-76
2022/06/09 07:31:38;;;;;;;;;;;;;;;35.86;35.48;96681.56;5111995;28;19957;-77
2022/06/09 07:34:04;;;;;;;;;;;;;;;36.36;35.10;96680.78;5084711;28;19920;-76
2022/06/09 07:36:29;;;;;;;;;;;;;;;36.29;34.33;96671.84;5101488;28;19940;-77
2022/06/09 07:38:55;;;;;;;;;;;;;;;35.49;35.10;96670.59;5105303;28;19912;-77
2022/06/09 07:41:20;;;;;;;;;;;;;;;35.55;34.30;96669.50;5089113;28;19952;-76
2022/06/09 07:43:49;;;;;;;;;;;;;;;35.73;33.51;96660.66;5078105;28;20272;-76
2022/06/09 07:46:15;;;;;;;;;;;;;;;36.65;33.91;96676.28;5098621;28;19912;-76
2022/06/09 07:48:40;;;;;;;;;;;;;;;35.31;34.50;96668.31;5075861;28;19916;-76
2022/06/09 07:51:06;;;;;;;;;;;;;;;35.91;33.30;96662.06;5084358;28;19919;-76
2022/06/09 07:53:31;;;;;;;;;;;;;;;35.92;32.60;96651.75;5075745;28;19912;-76
2022/06/09 07:55:56;;;;;;;;;;;;;;;36.74;32.45;96641.16;5101214;28;19912;-76
2022/06/09 07:58:22;;;;;;;;;;;;;;;38.51;29.39;96628.97;5084518;28;19912;-77
2022/06/09 08:00:48;;;;;;;;;;;;;;;38.96;28.18;96630.44;5092845;28;20383;-77
2022/06/09 08:03:23;;;;;;;;;;;;;;;37.89;29.75;96629.72;5084388;28;20363;-75
2022/06/09 08:05:48;;;;;;;;;;;;;;;35.69;32.17;96628.06;5084321;28;20056;-75
2022/06/09 08:08:14;;;;;;;;;;;;;;;37.19;31.39;96630.97;5075700;28;20006;-76
2022/06/09 08:10:39;;;;;;;;;;;;;;;37.10;31.53;96625.13;5092662;28;19912;-76
2022/06/09 08:13:05;;;;;;;;;;;;;;;38.44;30.12;96634.06;5079453;28;19912;-76
2022/06/09 08:15:31;;;;;;;;;;;;;;;37.80;30.23;96623.94;5087642;28;20441;-75
2022/06/09 08:17:57;;;;;;;;;;;;;;;37.75;30.63;96623.94;5086877;28;19912;-76
2022/06/09 08:20:23;;;;;;;;;;;;;;;39.54;29.16;96626.34;5094904;28;19994;-75
2022/06/09 08:22:48;;;;;;;;;;;;;;;40.52;27.72;96624.53;5112349;28;19955;-76
2022/06/09 08:25:15;;;;;;;;;;;;;;;40.57;27.07;96619.69;5095313;28;19912;-76
2022/06/09 08:27:40;;;;;;;;;;;;;;;40.71;27.51;96608.47;5086686;28;19920;-77
2022/06/09 08:30:08;;;;;;;;;;;;;;;40.76;27.62;96601.94;5091730;28;20292;-77
2022/06/09 08:32:33;;;;;;;;;;;;;;;42.03;25.39;96598.88;5075564;28;20363;-76
2022/06/09 08:34:59;;;;;;;;;;;;;;;42.14;25.38;96602.28;5085900;28;19923;-76
2022/06/09 08:37:25;;;;;;;;;;;;;;;41.64;26.14;96601.50;5095372;28;19912;-76
2022/06/09 08:39:50;;;;;;;;;;;;;;;42.32;24.78;96595.63;5086665;28;19912;-75
2022/06/09 08:42:34;;;;;;;;;;;;;;;41.54;25.82;96590.47;5090455;28;19911;-75
2022/06/09 08:45:10;;;;;;;;;;;;;;;41.11;25.79;96575.97;5110897;28;19915;-75
2022/06/09 08:47:37;;;;;;;;;;;;;;;38.99;27.70;96580.31;5079397;28;19927;-75
2022/06/09 08:50:06;;;;;;;;;;;;;;;37.55;29.22;96579.44;5103247;28;20390;-75
2022/06/09 08:52:36;;;;;;;;;;;;;;;38.38;28.03;96588.56;5107661;28;19919;-75
2022/06/09 08:55:03;;;;;;;;;;;;;;;39.63;27.52;96590.06;5083840;28;20337;-75
2022/06/09 08:57:32;;;;;;;;;;;;;;;40.66;26.50;96582.50;5082410;28;19915;-74
2022/06/09 08:59:58;;;;;;;;;;;;;;;40.73;25.17;96582.94;5082924;28;19959;-75
2022/06/09 09:02:40;;;;;;;;;;;;;;;38.84;27.77;96585.28;5080006;28;19954;-75
2022/06/09 09:05:11;;;;;;;;;;;;;;;37.11;29.88;96582.19;5081029;28;19994;-75
2022/06/09 09:07:38;;;;;;;;;;;;;;;36.47;30.45;96578.47;5097246;28;19963;-75
2022/06/09 09:10:18;;;;;;;;;;;;;;;36.50;30.08;96587.09;5089187;28;19919;-75
2022/06/09 09:12:44;;;;;;;;;;;;;;;35.81;31.45;96586.84;5079751;28;20025;-75
2022/06/09 09:15:09;;;;;;;;;;;;;;;35.37;31.26;96583.75;5098095;28;19972;-75
2022/06/09 09:17:43;;;;;;;;;;;;;;;35.49;31.92;96587.09;5101144;28;19919;-75
2022/06/09 09:20:11;;;;;;;;;;;;;;;36.20;30.93;96570.44;5100209;28;20420;-75
2022/06/09 09:22:38;;;;;;;;;;;;;;;35.31;32.65;96573.72;5099580;28;19919;-75
2022/06/09 09:25:16;;;;;;;;;;;;;;;35.86;32.55;96571.00;5073982;28;19912;-76
2022/06/09 09:27:41;;;;;;;;;;;;;;;36.40;30.97;96556.47;5098880;28;19915;-76
2022/06/09 09:30:13;;;;;;;;;;;;;;;38.63;28.77;96561.44;5099314;28;20318;-76
2022/06/09 09:32:40;;;;;;;;;;;;;;;39.14;28.37;96559.69;5090966;28;19916;-76
2022/06/09 09:35:11;;;;;;;;;;;;;;;39.09;28.48;96556.97;5093926;28;20064;-75
2022/06/09 09:37:37;;;;;;;;;;;;;;;39.48;27.32;96556.69;5078637;28;19912;-76
2022/06/09 09:40:12;;;;;;;;;;;;;;;39.40;28.22;96558.22;5082360;28;19911;-76
2022/06/09 09:42:41;;;;;;;;;;;;;;;39.55;27.07;96551.56;5099266;28;20375;-76
2022/06/09 09:45:09;;;;;;;;;;;;;;;38.80;28.31;96548.66;5093896;28;19919;-76
2022/06/09 09:48:01;;;;;;;;;;;;;;;40.13;27.56;96548.41;5095950;28;19978;-76
2022/06/09 09:50:36;;;;;;;;;;;;;;;39.89;26.22;96538.16;5096658;28;19965;-76
2022/06/09 09:53:01;;;;;;;;;;;;;;;40.70;25.37;96536.69;5100236;28;20007;-74
2022/06/09 09:55:34;;;;;;;;;;;;;;;40.74;25.52;96534.91;5095929;28;20433;-75
2022/06/09 09:58:12;;;;;;;;;;;;;;;39.43;26.75;96532.44;5093736;28;20374;-75
2022/06/09 10:00:37;;;;;;;;;;;;;;;40.05;25.50;96527.50;5102375;28;19912;-76
2022/06/09 10:08:47;;;;;;;;;;;;;;;38.40;26.46;96522.00;5099193;28;19923;-76
2022/06/09 10:14:31;;;;;;;;;;;;;;;39.61;25.06;96508.34;5102095;28;19985;-76
2022/06/09 10:16:56;;;;;;;;;;;;;;;40.90;24.18;96499.75;5076158;28;20375;-77
2022/06/09 10:19:23;;;;;;;;;;;;;;;40.47;24.93;96501.19;5081935;28;19912;-77
2022/06/09 10:21:49;;;;;;;;;;;;;;;37.60;27.36;96494.78;5081915;28;19916;-76
2022/06/09 10:24:15;;;;;;;;;;;;;;;35.63;29.97;96499.19;5076160;28;20022;-76
2022/06/09 10:26:41;;;;;;;;;;;;;;;34.80;31.33;96505.97;5102076;28;20016;-75
2022/06/09 10:29:26;;;;;;;;;;;;;;;33.75;33.32;96509.81;5076579;28;20374;-75
2022/06/09 10:32:00;;;;;;;;;;;;;;;35.47;32.10;96514.19;5102629;28;19919;-75
2022/06/09 10:34:26;;;;;;;;;;;;;;;34.05;33.81;96512.81;5077185;28;19915;-76
2022/06/09 10:36:57;;;;;;;;;;;;;;;32.62;35.50;96505.38;5101909;28;19911;-76
2022/06/09 10:39:26;;;;;;;;;;;;;;;31.75;36.69;96516.31;5098440;28;19916;-76
2022/06/09 10:41:53;;;;;;;;;;;;;;;32.39;36.81;96516.69;5098452;28;19989;-75
2022/06/09 10:44:38;;;;;;;;;;;;;;;33.06;36.27;96528.31;5085407;28;19923;-75
2022/06/09 10:55:36;;;;;;;;;;;;;;;31.30;39.16;96529.34;5101265;28;19918;-76
2022/06/09 10:58:17;;;;;;;;;;;;;;;30.53;40.81;96524.31;5078229;28;19977;-76
2022/06/09 11:00:45;;;;;;;;;;;;;;;29.59;43.97;96530.97;5083014;28;19919;-76
2022/06/09 11:03:21;;;;;;;;;;;;;;;29.52;45.80;96537.69;5091892;28;19999;-77
2022/06/09 11:05:55;;;;;;;;;;;;;;;29.70;45.02;96545.84;5110814;28;20399;-76
2022/06/09 11:08:20;;;;;;;;;;;;;;;30.97;44.00;96549.50;5110438;28;19916;-76
2022/06/09 11:10:49;;;;;;;;;;;;;;;33.00;40.23;96537.66;5106437;28;19919;-76
2022/06/09 11:13:33;;;;;;;;;;;;;;;35.10;35.81;96530.28;5099673;28;19920;-77
2022/06/09 11:16:28;;;;;;;;;;;;;;;34.40;35.67;96516.91;5097911;28;19965;-76
2022/06/09 11:19:12;;;;;;;;;;;;;;;32.23;39.08;96521.19;5080273;28;19920;-76
2022/06/09 11:21:41;;;;;;;;;;;;;;;30.77;42.50;96535.25;5107668;28;20375;-77
2022/06/09 11:24:19;;;;;;;;;;;;;;;29.64;45.66;96544.03;5092126;28;20279;-77
2022/06/09 11:26:48;;;;;;;;;;;;;;;29.44;47.33;96547.13;5110353;28;19912;-76
2022/06/09 11:29:25;;;;;;;;;;;;;;;29.21;47.77;96549.84;5078911;28;19916;-76
2022/06/09 11:31:54;;;;;;;;;;;;;;;29.13;47.52;96552.09;5121397;27;19918;-76
2022/06/09 11:34:26;;;;;;;;;;;;;;;28.33;49.56;96557.81;5101433;28;19969;-77
2022/06/09 11:37:07;;;;;;;;;;;;;;;27.41;52.91;96580.69;5077321;28;19911;-76
2022/06/09 11:39:37;;;;;;;;;;;;;;;27.92;53.55;96577.72;5092661;28;19911;-76
2022/06/09 11:42:15;;;;;;;;;;;;;;;27.93;54.70;96576.63;5083177;28;20436;-76
2022/06/09 11:44:41;;;;;;;;;;;;;;;29.49;51.88;96577.59;5101634;28;19915;-76
2022/06/09 11:47:10;;;;;;;;;;;;;;;30.55;48.31;96559.94;5089625;28;19915;-74
2022/06/09 11:49:37;;;;;;;;;;;;;;;30.33;48.60;96561.66;5109788;28;19917;-74
2022/06/09 11:52:04;;;;;;;;;;;;;;;29.53;49.92;96562.25;5077127;28;19912;-76
2022/06/09 11:54:42;;;;;;;;;;;;;;;28.87;53.96;96569.84;5078444;28;19919;-76
2022/06/09 11:57:26;;;;;;;;;;;;;;;28.40;57.67;96572.34;5108777;28;19919;-76
2022/06/09 11:59:54;;;;;;;;;;;;;;;28.20;58.93;96566.25;5109266;28;19916;-76
2022/06/09 12:02:23;;;;;;;;;;;;;;;28.03;58.51;96570.63;5101025;28;20031;-76
2022/06/09 12:05:00;;;;;;;;;;;;;;;27.49;59.54;96573.28;5109743;28;19916;-77
2022/06/09 12:07:37;;;;;;;;;;;;;;;27.27;59.17;96570.88;5094222;28;19919;-76
2022/06/09 12:10:23;;;;;;;;;;;;;;;26.87;60.43;96563.97;5084073;28;19912;-76
2022/06/09 12:13:11;;;;;;;;;;;;;;;26.34;61.82;96563.38;5101730;28;19919;-76
2022/06/09 12:15:55;;;;;;;;;;;;;;;26.17;62.30;96553.97;5091684;28;19919;-75
2022/06/09 12:18:23;;;;;;;;;;;;;;;25.73;63.74;96554.69;5085937;28;19919;-74
2022/06/09 12:20:49;;;;;;;;;;;;;;;25.59;64.44;96572.22;5108452;28;20395;-75
2022/06/09 12:23:43;;;;;;;;;;;;;;;25.09;66.86;96588.19;5099904;28;19926;-75
2022/06/09 12:26:09;;;;;;;;;;;;;;;24.96;62.79;96595.53;5034894;28;20487;-75
2022/06/09 12:28:49;;;;;;;;;;;;;;;24.32;58.84;96573.22;5105128;28;20357;-75
2022/06/09 12:31:16;;;;;;;;;;;;;;;23.96;59.55;96568.00;5097826;28;19911;-75
2022/06/09 12:33:50;;;;;;;;;;;;;;;23.87;65.14;96578.22;5091404;28;19912;-76
2022/06/09 12:36:27;;;;;;;;;;;;;;;23.73;64.90;96557.34;5091654;28;19918;-75
2022/06/09 12:38:55;;;;;;;;;;;;;;;22.86;81.17;96535.03;5098722;28;19951;-75
2022/06/09 12:41:37;;;;;;;;;;;;;;;21.87;95.18;96516.69;5074947;28;19958;-75
2022/06/09 12:44:15;;;;;;;;;;;;;;;21.55;100.00;96530.72;5086964;28;20391;-75
2022/06/09 12:46:41;;;;;;;;;;;;;;;21.71;100.00;96551.44;5111513;28;19915;-75
2022/06/09 12:49:26;;;;;;;;;;;;;;;22.96;100.00;96559.25;5089159;28;20264;-75
2022/06/09 12:51:52;;;;;;;;;;;;;;;23.86;100.00;96565.63;5082043;28;20340;-75
2022/06/09 12:54:19;;;;;;;;;;;;;;;25.04;100.00;96559.78;5099952;28;19950;-75
2022/06/09 12:56:45;;;;;;;;;;;;;;;26.24;82.13;96552.06;5082597;28;19908;-74
2022/06/09 12:59:25;;;;;;;;;;;;;;;25.35;73.61;96547.13;5096541;28;19999;-74
2022/06/09 13:01:52;;;;;;;;;;;;;;;25.84;73.87;96551.31;5104245;28;19915;-74
2022/06/09 13:04:18;;;;;;;;;;;;;;;25.40;76.65;96545.66;5080481;28;19919;-75
2022/06/09 13:06:47;;;;;;;;;;;;;;;26.04;76.28;96543.00;5073844;28;19912;-74
2022/06/09 13:09:21;;;;;;;;;;;;;;;25.48;81.10;96542.69;5107623;28;19924;-75
2022/06/09 13:14:38;;;;;;;;;;;;;;;25.23;85.81;96537.84;5092487;28;19919;-75
2022/06/09 13:17:19;;;;;;;;;;;;;;;25.30;81.59;96529.66;5082233;28;20275;-76